Stations météo

réclame
Mon MeteoGroup
Oberstdorf, Allemagne (10948): Température de l'air & dewpoint: 14.09.2018 18:00:00 - 20.09.2018 18:00:00 (CEST)Oberstdorf, Allemagne (10948): Température de l'air 5cm & Température de l'air -5cm: 14.09.2018 18:00:00 - 20.09.2018 18:00:00 (CEST)Oberstdorf, Allemagne (10948): Température de l'air -20cm & Température de l'air -100cm: 14.09.2018 18:00:00 - 20.09.2018 18:00:00 (CEST)Oberstdorf, Allemagne (10948): Vitesse du vent & gusts: 14.09.2018 18:00:00 - 20.09.2018 18:00:00 (CEST)Oberstdorf, Allemagne (10948): Direction du vent: 14.09.2018 18:00:00 - 20.09.2018 18:00:00 (CEST)Oberstdorf, Allemagne (10948): visibility: 14.09.2018 18:00:00 - 20.09.2018 18:00:00 (CEST)Oberstdorf, Allemagne (10948): Ensoleillement: 14.09.2018 18:00:00 - 20.09.2018 18:00:00 (CEST)Oberstdorf, Allemagne (10948): Quantités de précipitations: 14.09.2018 18:00:00 - 20.09.2018 18:00:00 (CEST)
Date & Time tt [°C] td [°C] tt 5cm [°C] tt -5cm [°C] tt -20cm [°C] tt -100cm [°C] ff [km/h] ff [knt] fx [km/h] fx [knt] dd vv [km] sd [min] rr [mm]
20.09.2018 18:00:00 21,0 13,4 21,0 18,6 17,0 16,9 8 5 19 10 S 51 60 0,0
20.09.2018 17:00:00 24,7 12,1 24,8 18,3 16,9 16,9 13 7 22 12 N 42 60 0,0
20.09.2018 16:00:00 24,5 11,6 25,0 17,8 16,7 16,9 14 8 23 12 NNW 29 60 0,0
20.09.2018 15:00:00 24,4 11,3 25,8 17,3 16,6 16,9 13 7 21 11 N 25 60 0,0
20.09.2018 14:00:00 23,9 9,4 25,3 16,7 16,6 16,9 14 8 22 12 N 37 60 0,0
20.09.2018 13:00:00 23,7 10,0 25,5 16,0 16,6 16,9 9 5 16 9 N 53 60 0,0
20.09.2018 12:00:00 22,1 9,7 25,5 15,5 16,7 16,9 4 2 8 4 N 49 60 0,0
20.09.2018 11:00:00 19,2 10,9 21,6 15,3 16,8 16,9 5 3 8 4 S 31 60 0,0
20.09.2018 10:00:00 16,3 10,2 17,6 15,3 17,0 16,9 5 3 11 6 SSE 42 60 0,0
20.09.2018 09:00:00 12,9 9,9 12,6 15,5 17,1 16,9 6 3 10 5 SSE 31 30 0,0
20.09.2018 08:00:00 8,0 7,5 6,6 15,8 17,3 16,9 6 3 9 5 SSE 26 0 0,0
20.09.2018 07:00:00 8,6 8,1 6,7 16,1 17,4 16,9 6 4 10 5 S 35 0 0,0
20.09.2018 06:00:00 8,6 7,8 6,2 16,4 17,5 16,9 4 2 9 5 SSE 28 0 0,0
20.09.2018 05:00:00 8,0 7,3 6,3 16,7 17,6 16,9 3 2 7 4 SE 21 0 0,0
20.09.2018 04:00:00 9,4 8,9 6,8 17,0 17,7 16,9 3 2 6 4 SE 15 0 0,0
20.09.2018 03:00:00 9,3 8,5 7,3 17,4 17,8 16,9 4 2 6 4 SSE 15 0 0,0
20.09.2018 02:00:00 10,9 10,4 8,6 17,7 17,8 16,9 2 1 8 4 SE 18 0 0,0
20.09.2018 01:00:00 11,4 10,7 9,1 18,0 17,9 16,9 4 2 8 4 SSE 24 0 0,0
20.09.2018 00:00:00 11,9 10,8 10,0 18,4 17,9 16,9 5 3 11 6 SSE 24 0 0,0
19.09.2018 23:00:00 12,6 11,4 10,5 18,7 17,8 17,0 5 3 12 7 ESE 30 0 0,0
19.09.2018 22:00:00 13,8 11,7 11,8 19,0 17,8 17,0 8 4 11 6 SSE 34 0 0,0
19.09.2018 21:00:00 14,4 12,1 12,6 19,2 17,6 17,0 8 4 16 9 S 37 0 0,0
19.09.2018 20:00:00 16,6 12,7 15,3 19,3 17,5 17,0 14 7 19 10 S 41 0 0,0
19.09.2018 19:00:00 17,6 13,2 16,8 19,3 17,3 17,0 15 8 19 10 S 43 49 0,0
19.09.2018 18:00:00 20,8 13,9 21,0 19,0 17,1 17,0 8 4 15 8 S 51 60 0,0
19.09.2018 17:00:00 24,0 11,9 24,6 18,7 16,9 17,0 10 6 18 10 NNW 51 60 0,0
19.09.2018 16:00:00 23,8 11,0 24,5 18,2 16,8 17,0 13 7 22 12 N 45 60 0,0
19.09.2018 15:00:00 23,8 11,9 25,2 17,5 16,6 17,0 13 7 19 10 N 45 59 0,0
19.09.2018 14:00:00 23,6 12,3 26,0 16,7 16,6 17,0 4 2 13 7 SSE 46 60 0,0
19.09.2018 13:00:00 22,4 11,8 24,6 16,1 16,6 17,0 5 3 12 6 NE 51 60 0,0
19.09.2018 12:00:00 20,6 11,9 24,2 15,7 16,7 17,0 3 1 8 4 SSW 42 60 0,0
19.09.2018 11:00:00 18,3 13,4 20,2 15,5 16,8 17,0 2 1 8 4 NW 41 60 0,0
19.09.2018 10:00:00 13,7 12,5 13,2 15,6 16,8 17,0 1 1 7 4 SE 25 0 0,0
19.09.2018 09:00:00 11,8 11,2 11,4 15,7 16,9 17,0 3 2 8 4 S 11 0 0,0
19.09.2018 08:00:00 12,1 11,0 11,5 15,7 17,0 17,0 5 3 10 6 S 22 0 0,0
19.09.2018 07:00:00 12,9 11,6 12,1 15,8 17,1 17,0 8 4 12 7 S 34 0 0,0
19.09.2018 06:00:00 12,0 11,3 11,7 16,0 17,2 17,0 2 1 8 4 SW 14 0 0,1
19.09.2018 05:00:00 11,6 11,0 11,4 16,1 17,4 17,0 5 3 11 6 S 19 0 0,0
19.09.2018 04:00:00 11,5 10,7 11,0 16,3 17,5 17,0 6 4 11 6 S 23 0 0,0
19.09.2018 03:00:00 11,1 10,5 10,5 16,6 17,6 17,0 5 3 13 7 SSE 16 0 0,0
19.09.2018 02:00:00 12,0 10,7 10,7 16,9 17,6 17,0 14 8 20 11 SSE 34 0 0,0
19.09.2018 01:00:00 10,4 10,2 9,6 17,2 17,7 17,0 6 3 12 7 SE 17 0 0,0
19.09.2018 00:00:00 10,1 9,9 8,3 17,5 17,8 17,0 4 2 10 6 S 0,2 0 0,0
18.09.2018 23:00:00 10,4 10,1 9,2 17,8 17,8 17,0 3 2 8 5 S 0,2 0 0,0
18.09.2018 22:00:00 11,4 10,7 9,9 18,0 17,8 17,0 4 2 11 6 ESE 20 0 0,0
18.09.2018 21:00:00 12,1 11,2 10,9 18,2 17,8 17,0 6 3 14 8 SSE 25 0 0,0
18.09.2018 20:00:00 14,0 13,0 13,2 18,3 17,7 17,0 8 5 14 8 SSE 41 0 0,0
18.09.2018 19:00:00 16,1 14,1 15,4 18,3 17,7 17,0 6 3 19 10 S 52 48 0,0
18.09.2018 18:00:00 16,3 14,1 16,3 18,4 17,6 17,0 13 7 23 13 SSE 55 6 0,1
18.09.2018 17:00:00 15,4 13,4 14,9 18,4 17,5 17,0 17 9 26 14 SSE 22 0 1,1
18.09.2018 16:00:00 15,3 13,2 14,7 18,4 17,4 17,0 16 8 42 23 S 10 0 1,6
18.09.2018 15:00:00 20,9 12,0 20,0 18,1 17,3 17,0 10 6 24 13 WSW 41 0 0,0
18.09.2018 14:00:00 22,2 12,0 22,5 17,6 17,3 17,0 12 6 25 13 W 51 1 0,0
18.09.2018 13:00:00 23,5 12,2 24,7 17,0 17,3 17,0 13 7 20 11 N 37 59 0,0
18.09.2018 12:00:00 23,5 13,1 26,9 16,5 17,4 17,0 3 1 6 3 SSW 45 60 0,0
18.09.2018 11:00:00 20,5 12,6 23,0 16,2 17,5 17,0 4 2 13 7 SE 39 60 0,0
18.09.2018 10:00:00 17,2 12,1 18,8 16,2 17,6 17,0 8 4 13 7 S 25 60 0,0
18.09.2018 09:00:00 14,0 11,2 13,7 16,5 17,8 16,9 7 4 10 6 SSE 21 31 0,0
18.09.2018 08:00:00 10,7 10,0 9,6 16,7 17,9 16,9 6 3 9 5 S 18 0 0,0
18.09.2018 07:00:00 10,5 10,0 8,8 17,0 18,0 16,9 6 3 8 4 SSE 16 0 0,0
18.09.2018 06:00:00 9,9 9,1 8,1 17,3 18,1 16,9 4 2 10 6 SE 14 0 0,0
18.09.2018 05:00:00 9,7 9,2 8,1 17,6 18,2 16,9 4 2 7 4 SSE 8 0 0,0
18.09.2018 04:00:00 10,1 9,1 8,7 17,9 18,3 16,9 3 1 8 4 S 8 0 0,0
18.09.2018 03:00:00 11,5 11,0 10,4 18,2 18,4 16,9 2 1 14 8 WSW 2,3 0 0,0
18.09.2018 02:00:00 12,6 12,2 10,7 18,5 18,4 16,9 5 3 11 6 S 7 0 0,0
18.09.2018 01:00:00 12,5 11,7 11,1 18,8 18,5 16,9 7 4 11 6 SSE 15 0 0,0
18.09.2018 00:00:00 13,0 12,4 12,0 19,1 18,5 16,9 6 3 9 5 SSE 12 0 0,0
17.09.2018 23:00:00 14,0 13,3 12,3 19,4 18,4 16,9 8 4 10 5 SSE 17 0 0,0
17.09.2018 22:00:00 14,8 13,5 13,7 19,7 18,4 16,9 3 2 9 5 SSE 19 0 0,0
17.09.2018 21:00:00 15,6 14,0 14,7 19,9 18,3 16,9 6 3 11 6 S 23 0 0,0
17.09.2018 20:00:00 17,5 14,4 16,0 20,0 18,1 16,9 9 5 15 8 SSE 29 0 0,0
17.09.2018 19:00:00 18,5 14,8 17,9 19,9 18,0 16,9 9 5 13 7 S 33 49 0,0
17.09.2018 18:00:00 22,4 14,3 23,4 19,7 17,9 16,9 8 4 18 10 SSW 38 60 0,0
17.09.2018 17:00:00 22,7 13,9 25,0 19,4 17,7 16,9 14 8 26 14 NW 30 59 0,0
17.09.2018 16:00:00 23,3 13,3 25,1 19,1 17,6 16,9 16 9 30 16 N 26 60 0,0
17.09.2018 15:00:00 23,7 13,4 25,6 18,6 17,5 16,9 15 8 24 13 N 27 60 0,0
17.09.2018 14:00:00 23,3 12,0 25,2 18,1 17,5 16,9 13 7 21 11 NNW 35 60 0,0
17.09.2018 13:00:00 22,7 11,5 24,5 17,5 17,5 16,9 13 7 21 11 NNW 20 60 0,0
17.09.2018 12:00:00 22,3 11,6 24,6 17,2 17,5 16,9 3 2 12 6 S 50 60 0,0
17.09.2018 11:00:00 19,2 13,6 22,0 17,0 17,6 16,9 9 5 15 8 S 38 60 0,0
17.09.2018 10:00:00 16,1 12,4 17,8 17,0 17,7 16,9 9 5 12 6 SSE 29 60 0,0
17.09.2018 09:00:00 14,1 12,2 14,5 17,2 17,7 16,9 9 5 12 6 S 20 28 0,0
17.09.2018 08:00:00 11,7 11,4 10,5 17,4 17,8 16,9 4 2 9 5 SSE 11 0 0,0
17.09.2018 07:00:00 12,6 12,2 11,5 17,6 17,9 16,9 4 2 11 6 SSW 8 0 0,0
17.09.2018 06:00:00 12,8 12,4 11,8 17,8 17,9 16,9 8 4 10 5 S 13 0 0,0
17.09.2018 05:00:00 14,0 13,6 13,0 18,0 18,0 16,9 4 2 6 3 SSW 2,1 0 0,0
17.09.2018 04:00:00 14,6 14,2 13,8 18,1 18,0 16,9 4 2 6 3 SSW 6 0 0,0
17.09.2018 03:00:00 15,0 14,3 14,8 18,3 18,0 16,9 2 1 11 6 SW 14 0 0,0
17.09.2018 02:00:00 15,6 14,8 15,3 18,4 18,0 16,9 8 5 13 7 SSW 12 0 0,0
17.09.2018 01:00:00 15,9 15,0 15,6 18,6 18,0 16,9 7 4 16 9 S 14 0 0,0
17.09.2018 00:00:00 15,9 15,2 15,7 18,8 18,0 16,9 7 4 11 6 SSW 10 0 0,0
16.09.2018 23:00:00 15,8 15,1 15,4 19,0 18,0 16,9 0 0 9 5 N 9 0 0,6
16.09.2018 22:00:00 16,2 15,1 15,9 19,2 17,9 16,9 4 2 10 5 WSW 3,0 0 0,4
16.09.2018 21:00:00 16,8 15,0 16,5 19,3 17,8 16,9 7 4 10 5 S 28 0 0,0
16.09.2018 20:00:00 16,4 15,0 16,0 19,4 17,6 16,9 9 5 13 7 S 21 0 0,0
16.09.2018 19:00:00 19,0 16,0 18,6 19,3 17,5 16,9 4 2 13 7 SW 33 5 0,0
16.09.2018 18:00:00 21,6 14,7 21,9 19,1 17,3 16,9 5 3 13 7 N 44 5 0,0
16.09.2018 17:00:00 22,2 13,5 23,8 18,8 17,1 16,9 7 4 14 8 N 52 25 0,0
16.09.2018 16:00:00 21,8 14,2 23,5 18,4 17,0 16,9 6 3 19 10 NNW 45 38 0,0
16.09.2018 15:00:00 21,7 12,4 24,2 17,8 16,9 16,9 13 7 18 10 N 30 57 0,0
16.09.2018 14:00:00 21,5 12,8 25,2 17,2 16,8 16,9 7 4 11 6 WNW 39 58 0,0
16.09.2018 13:00:00 20,4 12,4 24,0 16,6 16,8 16,9 2 1 8 4 N 38 60 0,0
16.09.2018 12:00:00 18,7 12,5 23,0 16,2 16,9 16,9 3 1 14 7 W 25 60 0,0
16.09.2018 11:00:00 15,7 11,3 18,7 15,9 16,9 16,9 6 3 11 6 E 40 60 0,0
16.09.2018 10:00:00 14,9 10,5 16,7 15,8 17,0 16,9 2 1 7 4 ESE 35 60 0,0
16.09.2018 09:00:00 12,0 9,7 12,1 16,0 17,1 16,9 4 2 6 4 S 14 16 0,0
16.09.2018 08:00:00 10,0 9,4 10,2 16,2 17,2 16,9 3 1 5 3 SE 13 0 0,0
16.09.2018 07:00:00 9,8 9,1 8,8 16,3 17,3 16,9 6 3 8 4 S 12 0 0,0
16.09.2018 06:00:00 11,3 10,3 10,5 16,5 17,4 16,9 7 4 9 5 S 15 0 0,0
16.09.2018 05:00:00 11,8 11,2 11,9 16,7 17,5 16,9 3 2 6 3 SSW 8 0 0,0
16.09.2018 04:00:00 11,1 10,6 11,3 16,9 17,6 16,9 0 0 6 3 N 8 0 0,0
16.09.2018 03:00:00 10,3 10,1 9,3 17,2 17,6 16,9 4 2 6 4 SE 7 0 0,0
16.09.2018 02:00:00 10,8 10,5 9,3 17,4 17,6 17,0 8 4 11 6 SSE 7 0 0,0
16.09.2018 01:00:00 11,0 10,6 9,5 17,6 17,7 17,0 6 3 10 5 SSE 4,4 0 0,0
16.09.2018 00:00:00 13,1 12,2 11,5 17,8 17,7 17,0 4 2 16 8 S 12 0 0,0
15.09.2018 23:00:00 14,1 12,9 14,1 18,0 17,7 17,0 4 2 9 5 E 13 0 0,0
15.09.2018 22:00:00 14,3 13,4 14,4 18,1 17,6 17,0 7 4 9 5 S 10 0 0,0
15.09.2018 21:00:00 14,8 13,6 14,9 18,2 17,6 17,0 3 2 4 2 SSE 14 0 0,0
15.09.2018 20:00:00 14,9 13,1 15,2 18,2 17,5 17,0 3 2 8 4 SSW 17 0 0,0
15.09.2018 19:00:00 15,8 13,6 15,9 18,2 17,5 17,0 7 4 9 5 S 17 0 0,0
15.09.2018 18:00:00 17,5 12,1 18,1 18,1 17,4 16,9 4 2 12 6 N 16 0 0,0
15.09.2018 17:00:00 17,5 12,9 18,4 17,9 17,3 16,9 4 2 16 9 WNW 19 0 0,0
15.09.2018 16:00:00 17,6 12,2 18,4 17,6 17,3 16,9 10 5 20 11 N 19 4 0,0
15.09.2018 15:00:00 18,0 12,5 20,8 17,2 17,3 16,9 12 7 17 9 NNW 16 14 0,0
15.09.2018 14:00:00 18,3 12,3 20,4 16,9 17,3 16,9 4 2 9 5 WNW 21 29 0,0
15.09.2018 13:00:00 16,4 11,2 18,3 16,7 17,4 16,9 4 2 15 8 NNW 14 0 0,0
15.09.2018 12:00:00 15,3 12,6 15,9 16,7 17,4 16,9 10 5 15 8 N 9 0 0,0
15.09.2018 11:00:00 14,6 12,7 15,4 16,7 17,5 16,9 4 2 8 4 N 20 0 0,1
15.09.2018 10:00:00 14,1 12,7 14,2 16,8 17,6 16,9 5 3 14 8 SSW 21 0 0,0
15.09.2018 09:00:00 13,7 12,8 13,5 16,9 17,7 16,9 10 5 13 7 S 20 0 0,1
15.09.2018 08:00:00 13,4 12,8 13,5 17,0 17,8 16,9 4 2 6 3 SSW 23 0 1,0
15.09.2018 07:00:00 13,2 12,7 13,2 17,2 17,9 16,9 3 1 6 4 ESE 2,1 0 4,1
15.09.2018 06:00:00 13,2 12,7 13,2 17,4 18,0 16,9 3 2 5 3 NNW 2,5 0 2,1
15.09.2018 05:00:00 12,9 12,3 12,9 17,6 18,1 16,9 3 2 7 4 NW 4,4 0 0,6
15.09.2018 04:00:00 12,7 12,2 12,6 17,8 18,1 16,9 4 2 9 5 SSE 16 0 0,0
15.09.2018 03:00:00 11,3 10,7 10,7 18,1 18,2 16,9 4 2 10 6 SSE 0,5 0 0,0
15.09.2018 02:00:00 12,3 11,8 11,2 18,3 18,2 16,9 4 2 8 5 S 4,7 0 0,0
15.09.2018 01:00:00 13,6 12,9 13,7 18,5 18,3 16,9 4 2 11 6 SW 15 0 0,0
15.09.2018 00:00:00 14,2 13,2 13,7 18,7 18,3 16,9 5 3 10 5 SSW 39 0 0,0
14.09.2018 23:00:00 14,2 13,2 13,7 18,9 18,2 16,9 7 4 12 6 SSE 29 0 0,0
14.09.2018 22:00:00 14,3 13,2 13,9 19,1 18,2 16,9 3 2 8 4 S 33 0 0,0
14.09.2018 21:00:00 15,0 13,7 14,8 19,3 18,1 16,9 5 3 10 5 SSE 34 0 0,0
14.09.2018 20:00:00 15,9 13,8 15,5 19,4 18,0 16,9 6 3 13 7 S 50 0 0,0
14.09.2018 19:00:00 16,9 13,8 16,9 19,3 17,9 16,9 5 3 16 9 SSW 68 0 0,0
14.09.2018 18:00:00 18,8 12,6 19,4 19,1 17,8 16,9 9 5 17 9 NNW 63 35 0,0

tt = Température de l'air
td = dewpoint
tt 5cm = Température de l'air 5cm
tt -5cm = Température de l'air -5cm
tt -20cm = Température de l'air -20cm
tt -100cm = Température de l'air -100cm
ff = Vitesse du vent
fx = gusts
dd = Direction du vent
vv = visibility
sd = Ensoleillement
rr = Quantités de précipitations

stations d'obs. à proximité